Accueil
METAR-TAF:

METAR-TAF

Aéroports :

Aéroport de Bergerac-Dordogne-Périgord

Bergerac, France

latitude: 44-49N, longitude: 000-31E, altitude: 51 m

Observation

Le bulletin a été fait il y a 28 minutes, à 20:00 UTC
Vent 3 kt de direction variable
Température 13°C
Humidité 94%
Pression 1020 hPa
Visibilité 10 km ou plus
pas de nuages en-dessous de 1500 mètres et pas de cumulonimbus.

METAR: LFBE 192000Z AUTO VRB03KT CAVOK 13/12 Q1020 NOSIG

Heure: 22:28 (20:28 UTC)

Prévision

Le bulletin a été fait il y a 9 heures et 28 minutes, à 11:00 UTC
Prévision valable du 19 à 12 UTC au 20 à 12 UTC
Vent 3 kt de direction variable
Visibilité 10 km ou plus
pas de nuages en-dessous de 1500 mètres et pas de cumulonimbus.
Probabilité 30%
du 20 à 03 UTC au 20 à 07 UTC
bancs de brouillard

TAF: LFBE 191100Z 1912/2012 VRB03KT CAVOK PROB30 2003/2007 BCFG

Observations et prévisions météorologiques de plus de 4000 aéroports (messages METAR et TAF).

Les stations disponibles sont représentées par des disques jaunes et rouges sur la carte.

Passer la souris dessus pour voir le nom de la station.

Cliquer dessus pour voir les observations et prévisions météorologiques.

Pour changer de carte: cliquez sur les boutons verts avec une croix noire pour zoomer, sur le bouton vert avec un tiret pour effectuer un zoom arrière, ou sur les flèches vertes pour les cartes adjacentes.


METAR-TAF: